< < Back
Terminal Aerodrome Forecast


Current Version              Previous Versions:   1  2  3  4  5  6  7  8  9  

Terminal Aerodrome Forecast

503
FTUS44 KMRX 231721
TAFTYS
TAF
KTYS 231721Z 2318/2418 04010KT P6SM FEW150
     FM240000 VRB03KT P6SM SKC=



Latest METAR

136
SAUS80 KWBC 241900 RRB
MTRTYS
METAR KTYS 241853Z VRB05KT 10SM FEW160 18/06 A3005 RMK AO2 SLP173
T01830061


USA.gov is the U.S. government's official web portal to all federal, state and local government web resources and services.